createdAt,value
2023-04-05T00:11:17.692Z,100918.05
2023-04-05T00:26:21.578Z,100909.12
2023-04-05T00:41:24.189Z,100908.15
2023-04-05T00:56:28.317Z,100898.15
2023-04-05T01:11:33.572Z,100904.86
2023-04-05T01:26:53.052Z,100883.46
2023-04-05T01:42:01.218Z,100877.77
2023-04-05T01:57:05.130Z,100868.20
2023-04-05T02:12:07.687Z,100871.94
2023-04-05T02:27:10.790Z,100856.73
2023-04-05T02:42:13.594Z,100842.52
2023-04-05T02:57:16.337Z,100824.67
2023-04-05T03:12:19.254Z,100823.02
2023-04-05T03:27:21.934Z,100813.58
2023-04-05T03:42:24.908Z,100812.52
2023-04-05T03:57:29.117Z,100806.73
2023-04-05T04:12:31.790Z,100812.81
2023-04-05T04:27:35.754Z,100823.69
2023-04-05T04:42:38.860Z,100825.96
2023-04-05T04:57:42.919Z,100845.48
2023-04-05T05:12:45.867Z,100847.39
2023-04-05T05:27:51.028Z,100849.56
2023-04-05T05:42:53.686Z,100859.36
2023-04-05T05:57:56.447Z,100864.92
2023-04-05T06:12:59.091Z,100857.02
2023-04-05T06:28:03.433Z,100853.40
2023-04-05T06:43:06.362Z,100854.25
2023-04-05T06:58:09.059Z,100854.91
2023-04-05T07:13:11.623Z,100854.80
2023-04-05T07:28:14.247Z,100864.42
2023-04-05T07:43:19.542Z,100865.43
2023-04-05T07:58:22.699Z,100866.27
2023-04-05T08:13:25.391Z,100869.73
2023-04-05T08:28:27.977Z,100875.84
2023-04-05T08:43:55.362Z,100864.81
2023-04-05T08:59:07.230Z,100852.90
2023-04-05T09:14:11.594Z,100848.75
2023-04-05T09:29:30.162Z,100843.77
2023-04-05T09:45:03.170Z,100834.77
2023-04-05T10:00:16.766Z,100834.94
2023-04-05T10:15:19.596Z,100824.67
2023-04-05T10:30:24.392Z,100819.50
2023-04-05T10:45:28.862Z,100803.21
2023-04-05T11:00:33.147Z,100788.14
2023-04-05T11:15:36.471Z,100772.45
2023-04-05T11:30:54.134Z,100772.21
2023-04-05T11:45:56.884Z,100768.80
2023-04-05T12:01:01.067Z,100761.74
2023-04-05T12:16:09.352Z,100764.64
2023-04-05T12:31:12.116Z,100757.80
2023-04-05T12:46:18.452Z,100749.98
2023-04-05T13:01:21.074Z,100742.56
2023-04-05T13:16:23.691Z,100743.15
2023-04-05T13:31:27.165Z,100753.21
2023-04-05T13:46:29.913Z,100759.98
2023-04-05T14:01:34.128Z,100767.96
2023-04-05T14:16:38.086Z,100739.92
2023-04-05T14:31:40.847Z,100735.27
2023-04-05T14:46:43.624Z,100732.36
2023-04-05T15:01:47.385Z,100730.73
2023-04-05T15:16:50.572Z,100717.14
2023-04-05T15:31:53.561Z,100715.46
2023-04-05T15:46:56.275Z,100713.70
2023-04-05T16:01:58.942Z,100708.13
2023-04-05T16:17:04.413Z,100707.05
2023-04-05T16:32:08.483Z,100711.17
2023-04-05T16:47:11.066Z,100716.64
2023-04-05T17:02:13.689Z,100719.64
2023-04-05T17:17:16.741Z,100727.23
2023-04-05T17:32:19.326Z,100724.78
2023-04-05T17:47:21.934Z,100731.59
2023-04-05T18:02:24.714Z,100750.91
2023-04-05T18:17:28.199Z,100770.77
2023-04-05T18:32:31.357Z,100785.52
2023-04-05T18:47:36.535Z,100795.86
2023-04-05T19:02:39.358Z,100808.73
2023-04-05T19:17:42.769Z,100808.77
2023-04-05T19:32:45.735Z,100812.15
2023-04-05T19:47:48.633Z,100808.48
2023-04-05T20:02:51.942Z,100804.36
2023-04-05T20:17:54.708Z,100801.14
2023-04-05T20:32:57.733Z,100797.50
2023-04-05T20:48:01.019Z,100778.63
2023-04-05T21:03:04.014Z,100771.77
2023-04-05T21:18:08.434Z,100768.32
2023-04-05T21:33:12.205Z,100763.88
2023-04-05T21:48:14.955Z,100763.96
2023-04-05T22:03:17.579Z,100769.35
2023-04-05T22:18:20.310Z,100758.98
2023-04-05T22:33:22.973Z,100764.35
2023-04-05T22:48:26.177Z,100768.48
2023-04-05T23:03:28.760Z,100770.09
2023-04-05T23:18:31.569Z,100770.02
2023-04-05T23:33:34.460Z,100765.52
2023-04-05T23:48:37.306Z,100764.36
